Time;durP1;ratioP1;P1;durP2;ratioP2;P2;SDS_P1;SDS_P2;PMS_P1;PMS_P2;Temp;Humidity;BMP_temperature;BMP_pressure;BME280_temperature;BME280_humidity;BME280_pressure;Samples;Min_cycle;Max_cycle;Signal;HPM_P1;HPM_P2
2024/01/30 00:02:21;;;;;;;3.33;3.03;;;6.00;99.90;;;;;;5093586;28;20476;-62
2024/01/30 00:04:47;;;;;;;3.03;2.83;;;6.20;99.90;;;;;;5093618;28;20055;-62
2024/01/30 00:07:12;;;;;;;3.60;3.30;;;5.90;99.90;;;;;;5093494;28;20044;-62
2024/01/30 00:09:39;;;;;;;3.33;3.03;;;5.70;99.90;;;;;;5093306;28;20044;-62
2024/01/30 00:12:06;;;;;;;3.58;3.03;;;5.90;99.90;;;;;;5093935;28;20198;-62
2024/01/30 00:14:45;;;;;;;3.47;3.17;;;6.00;99.90;;;;;;5093264;28;20391;-62
2024/01/30 00:17:11;;;;;;;3.22;2.92;;;5.90;99.90;;;;;;5092923;28;20036;-62
2024/01/30 00:19:37;;;;;;;2.63;2.42;;;6.00;99.90;;;;;;5093200;28;20090;-62
2024/01/30 00:22:02;;;;;;;3.67;3.38;;;7.00;99.90;;;;;;5093182;28;20036;-66
2024/01/30 00:24:28;;;;;;;3.42;3.13;;;6.00;99.90;;;;;;5093128;28;20498;-62
2024/01/30 00:26:54;;;;;;;3.45;3.15;;;5.90;99.90;;;;;;5093062;28;20470;-62
2024/01/30 00:29:20;;;;;;;3.95;3.38;;;6.40;99.90;;;;;;5092968;28;20534;-62
2024/01/30 00:31:46;;;;;;;3.42;3.08;;;7.00;99.90;;;;;;5093038;28;20067;-62
2024/01/30 00:34:11;;;;;;;3.13;2.83;;;6.00;99.90;;;;;;5092685;28;20039;-62
2024/01/30 00:36:37;;;;;;;3.20;2.90;;;6.00;99.90;;;;;;5093040;28;20102;-61
2024/01/30 00:39:06;;;;;;;3.70;3.30;;;6.00;99.90;;;;;;5092617;28;20043;-62
2024/01/30 00:41:32;;;;;;;3.80;3.47;;;6.30;99.90;;;;;;5092534;28;20115;-62
2024/01/30 00:43:57;;;;;;;3.72;3.42;;;6.00;99.90;;;;;;5092522;28;20071;-62
2024/01/30 00:46:23;;;;;;;3.63;3.33;;;6.10;99.90;;;;;;5092697;28;20028;-62
2024/01/30 00:48:48;;;;;;;3.17;2.88;;;6.10;99.90;;;;;;5092727;28;20044;-62
2024/01/30 00:51:14;;;;;;;3.53;3.20;;;6.70;99.90;;;;;;5092717;28;20377;-62
2024/01/30 00:53:41;;;;;;;3.55;3.25;;;6.00;99.90;;;;;;5092580;28;20040;-62
2024/01/30 00:56:07;;;;;;;3.58;3.28;;;6.50;99.90;;;;;;5091816;28;20036;-62
2024/01/30 00:58:33;;;;;;;3.38;3.08;;;6.10;99.90;;;;;;5092295;28;20040;-70
2024/01/30 01:00:59;;;;;;;2.90;2.70;;;6.10;99.90;;;;;;5092260;28;20059;-69
2024/01/30 01:03:25;;;;;;;3.25;2.95;;;6.10;99.90;;;;;;5074584;28;20072;-70
2024/01/30 01:05:50;;;;;;;2.90;2.70;;;6.10;99.90;;;;;;5092447;28;20040;-71
2024/01/30 01:08:16;;;;;;;3.47;3.17;;;6.10;99.90;;;;;;5074385;28;20115;-70
2024/01/30 01:10:41;;;;;;;3.35;3.05;;;6.10;99.90;;;;;;5092090;28;20036;-71
2024/01/30 01:13:13;;;;;;;2.88;2.63;;;6.20;99.90;;;;;;5092618;28;20052;-71
2024/01/30 01:15:39;;;;;;;3.50;3.20;;;6.20;99.90;;;;;;5092385;28;20070;-70
2024/01/30 01:18:05;;;;;;;3.35;2.78;;;6.10;99.90;;;;;;5092053;28;20032;-70
2024/01/30 01:20:30;;;;;;;3.40;3.10;;;7.00;99.90;;;;;;5092301;28;20094;-71
2024/01/30 01:22:56;;;;;;;3.20;2.90;;;6.90;99.90;;;;;;5092208;28;20097;-71
2024/01/30 01:25:21;;;;;;;2.65;2.45;;;6.20;99.90;;;;;;5092100;28;20036;-71
2024/01/30 01:27:51;;;;;;;4.15;2.85;;;6.10;99.90;;;;;;5092315;28;20039;-70
2024/01/30 01:30:21;;;;;;;3.78;3.35;;;6.10;99.90;;;;;;5092156;28;20050;-69
2024/01/30 01:32:54;;;;;;;3.63;3.33;;;6.20;99.90;;;;;;5074272;28;20070;-70
2024/01/30 01:35:27;;;;;;;3.30;3.00;;;6.20;99.90;;;;;;5092237;28;20407;-71
2024/01/30 01:37:58;;;;;;;3.28;2.72;;;6.20;99.90;;;;;;5091937;28;20040;-71
2024/01/30 01:40:24;;;;;;;3.70;3.40;;;7.10;99.90;;;;;;5092250;28;20040;-71
2024/01/30 01:42:54;;;;;;;3.08;2.78;;;6.20;99.90;;;;;;5073781;28;20089;-70
2024/01/30 01:45:20;;;;;;;3.35;3.05;;;6.20;99.90;;;;;;5092128;28;20055;-70
2024/01/30 01:47:50;;;;;;;3.42;3.13;;;6.70;99.90;;;;;;5092167;28;20080;-62
2024/01/30 01:50:19;;;;;;;3.30;3.00;;;6.20;99.90;;;;;;5073627;28;20048;-62
2024/01/30 01:52:50;;;;;;;3.10;2.90;;;6.20;99.90;;;;;;5074245;28;20052;-62
2024/01/30 01:55:21;;;;;;;5.78;3.30;;;6.20;99.90;;;;;;5092088;28;20399;-62
2024/01/30 01:57:47;;;;;;;2.90;2.70;;;6.20;99.90;;;;;;5092065;28;20481;-62
2024/01/30 02:00:14;;;;;;;3.58;3.28;;;6.50;99.90;;;;;;5091995;28;20083;-62
2024/01/30 02:02:39;;;;;;;2.83;2.63;;;6.30;99.90;;;;;;5091864;28;20074;-62
2024/01/30 02:05:06;;;;;;;3.17;2.80;;;6.30;99.90;;;;;;5091666;28;20036;-62
2024/01/30 02:07:31;;;;;;;3.20;2.90;;;6.30;99.90;;;;;;5092151;28;20047;-58
2024/01/30 02:09:57;;;;;;;3.90;3.15;;;6.30;99.90;;;;;;5095451;28;20422;-59
2024/01/30 02:12:23;;;;;;;3.53;2.80;;;6.30;99.90;;;;;;5077869;28;20067;-58
2024/01/30 02:15:02;;;;;;;2.92;2.72;;;6.30;99.90;;;;;;5095401;28;20040;-59
2024/01/30 02:17:28;;;;;;;3.42;3.10;;;6.30;99.90;;;;;;5095644;28;20121;-61
2024/01/30 02:19:53;;;;;;;3.20;2.97;;;6.60;99.90;;;;;;5095572;28;20583;-58
2024/01/30 02:22:20;;;;;;;3.53;2.88;;;6.30;99.90;;;;;;5095245;28;20074;-61
2024/01/30 02:24:45;;;;;;;3.33;3.03;;;6.30;99.90;;;;;;5095481;28;20040;-59
2024/01/30 02:27:11;;;;;;;3.35;2.70;;;6.30;99.90;;;;;;5095352;28;20036;-58
2024/01/30 02:29:43;;;;;;;2.50;2.30;;;6.30;99.90;;;;;;5113580;22;20067;-60
2024/01/30 02:32:09;;;;;;;3.50;3.20;;;6.40;99.90;;;;;;5095545;28;20048;-62
2024/01/30 02:34:35;;;;;;;3.15;2.80;;;6.40;99.90;;;;;;5095335;28;20497;-62
2024/01/30 02:37:01;;;;;;;2.85;2.53;;;6.40;99.90;;;;;;5095289;28;20425;-62
2024/01/30 02:39:26;;;;;;;2.78;2.58;;;6.40;99.90;;;;;;5095174;28;20089;-63
2024/01/30 02:41:52;;;;;;;3.08;2.85;;;6.30;99.90;;;;;;5095224;28;20432;-63
2024/01/30 02:44:18;;;;;;;3.30;3.00;;;6.40;99.90;;;;;;5094832;28;20115;-60
2024/01/30 02:46:43;;;;;;;3.00;2.80;;;6.30;99.90;;;;;;5095019;28;20032;-60
2024/01/30 02:49:09;;;;;;;3.17;2.92;;;6.30;99.90;;;;;;5094950;28;20036;-62
2024/01/30 02:51:34;;;;;;;2.80;2.60;;;7.20;99.90;;;;;;5095024;28;20040;-62
2024/01/30 02:54:00;;;;;;;4.13;3.28;;;6.30;99.90;;;;;;5076533;28;20047;-62
2024/01/30 02:56:26;;;;;;;2.83;2.40;;;6.30;99.90;;;;;;5094677;28;20054;-63
2024/01/30 02:58:51;;;;;;;2.90;2.70;;;7.10;99.90;;;;;;5076467;28;20039;-62
2024/01/30 03:01:17;;;;;;;2.72;2.53;;;6.30;99.90;;;;;;5094777;28;20097;-62
2024/01/30 03:03:43;;;;;;;2.65;2.45;;;6.80;99.90;;;;;;5094750;28;20111;-63
2024/01/30 03:06:08;;;;;;;3.05;2.78;;;6.30;99.90;;;;;;5094650;28;20250;-63
2024/01/30 03:08:35;;;;;;;2.85;2.65;;;6.60;99.90;;;;;;5094405;28;20050;-62
2024/01/30 03:11:01;;;;;;;3.13;2.65;;;6.30;99.90;;;;;;5094547;28;20454;-62
2024/01/30 03:13:27;;;;;;;3.00;2.80;;;7.20;99.90;;;;;;5094262;28;20040;-62
2024/01/30 03:15:52;;;;;;;5.50;2.80;;;6.30;99.90;;;;;;5094500;28;20032;-62
2024/01/30 03:18:18;;;;;;;2.95;2.60;;;6.30;99.90;;;;;;5094081;28;20105;-62
2024/01/30 03:20:43;;;;;;;2.72;2.53;;;6.30;99.90;;;;;;5094306;28;20040;-62
2024/01/30 03:23:09;;;;;;;2.63;2.42;;;7.30;99.90;;;;;;5094357;28;20043;-63
2024/01/30 03:25:35;;;;;;;3.53;2.70;;;6.50;99.90;;;;;;5076295;28;20055;-63
2024/01/30 03:28:01;;;;;;;3.85;2.55;;;6.60;99.90;;;;;;5094265;28;20071;-62
2024/01/30 03:30:26;;;;;;;3.00;2.63;;;6.30;99.90;;;;;;5092725;28;20074;-62
2024/01/30 03:32:59;;;;;;;2.75;2.47;;;6.60;99.90;;;;;;5093898;28;20056;-62
2024/01/30 03:35:24;;;;;;;2.67;2.47;;;6.50;99.90;;;;;;5094102;28;20028;-62
2024/01/30 03:37:50;;;;;;;5.28;2.85;;;7.00;99.90;;;;;;5075913;28;20475;-62
2024/01/30 03:40:16;;;;;;;2.65;2.45;;;6.60;99.90;;;;;;5094068;28;20122;-62
2024/01/30 03:42:41;;;;;;;3.50;2.80;;;6.60;99.90;;;;;;5094272;28;20036;-62
2024/01/30 03:45:07;;;;;;;3.65;3.05;;;6.80;99.90;;;;;;5093910;28;20067;-63
2024/01/30 03:47:33;;;;;;;2.65;2.45;;;6.80;99.90;;;;;;5093910;28;20075;-60
2024/01/30 03:49:59;;;;;;;2.50;2.30;;;7.50;99.90;;;;;;5093484;28;20084;-60
2024/01/30 03:52:24;;;;;;;3.00;2.70;;;7.00;99.90;;;;;;5093828;28;20036;-60
2024/01/30 03:54:50;;;;;;;2.67;2.47;;;7.00;99.90;;;;;;5093754;28;20085;-60
2024/01/30 03:57:16;;;;;;;2.53;2.33;;;7.10;99.90;;;;;;5093679;28;20035;-60
2024/01/30 03:59:42;;;;;;;3.28;2.75;;;7.10;99.90;;;;;;5093974;28;20554;-60
2024/01/30 04:02:08;;;;;;;2.70;2.35;;;7.20;99.90;;;;;;5075525;28;20035;-60
2024/01/30 04:04:33;;;;;;;2.55;2.35;;;7.70;99.90;;;;;;5093262;28;20047;-60
2024/01/30 04:06:59;;;;;;;3.58;2.70;;;7.30;99.90;;;;;;5075113;28;20048;-60
2024/01/30 04:09:26;;;;;;;2.50;2.30;;;7.30;99.90;;;;;;5093452;28;20089;-69
2024/01/30 04:11:52;;;;;;;2.55;2.35;;;7.40;99.90;;;;;;5075012;28;20079;-70
2024/01/30 04:14:17;;;;;;;2.47;2.28;;;7.40;99.90;;;;;;5093071;28;20536;-69
2024/01/30 04:16:43;;;;;;;2.65;2.40;;;7.40;99.90;;;;;;5093300;28;20028;-70
2024/01/30 04:19:08;;;;;;;2.70;2.50;;;7.40;99.90;;;;;;5093293;28;20052;-69
2024/01/30 04:21:34;;;;;;;3.80;2.55;;;7.70;99.90;;;;;;5075248;28;20048;-70
2024/01/30 04:24:00;;;;;;;2.80;2.47;;;7.60;99.90;;;;;;5093230;28;20048;-68
2024/01/30 04:26:25;;;;;;;2.80;2.50;;;8.20;99.90;;;;;;5093162;28;20036;-70
2024/01/30 04:28:51;;;;;;;2.92;2.65;;;7.40;99.90;;;;;;5074686;28;20043;-70
2024/01/30 04:31:24;;;;;;;3.10;2.80;;;7.30;99.90;;;;;;5090636;28;20522;-69
2024/01/30 04:33:49;;;;;;;3.72;2.42;;;7.50;99.90;;;;;;5092796;28;20043;-69
2024/01/30 04:36:15;;;;;;;2.47;2.28;;;8.00;99.90;;;;;;5074594;28;20043;-69
2024/01/30 04:38:40;;;;;;;2.97;2.45;;;7.50;99.90;;;;;;5093018;28;20079;-70
2024/01/30 04:41:07;;;;;;;2.80;2.60;;;7.50;99.90;;;;;;5074434;28;20048;-70
2024/01/30 04:43:32;;;;;;;2.70;2.28;;;7.90;99.90;;;;;;5092923;28;20032;-70
2024/01/30 04:45:58;;;;;;;2.70;2.50;;;7.60;99.90;;;;;;5092744;28;20097;-70
2024/01/30 04:48:23;;;;;;;2.95;2.10;;;7.50;99.90;;;;;;5092526;28;20486;-69
2024/01/30 04:50:49;;;;;;;2.83;2.63;;;7.60;99.90;;;;;;5092882;28;20070;-57
2024/01/30 04:53:15;;;;;;;2.45;2.13;;;7.50;99.90;;;;;;5092547;28;20437;-56
2024/01/30 04:55:40;;;;;;;3.58;2.88;;;7.60;99.90;;;;;;5092374;28;20040;-56
2024/01/30 04:58:06;;;;;;;3.40;2.63;;;7.60;99.90;;;;;;5092335;28;20089;-57
2024/01/30 05:00:32;;;;;;;3.13;2.67;;;7.90;99.90;;;;;;5074291;28;20039;-57
2024/01/30 05:02:57;;;;;;;2.70;2.50;;;7.80;99.90;;;;;;5092661;28;20536;-56
2024/01/30 05:05:23;;;;;;;3.10;2.55;;;7.50;99.90;;;;;;5092247;28;20036;-57
2024/01/30 05:07:49;;;;;;;3.10;2.72;;;7.60;99.90;;;;;;5092288;28;20044;-57
2024/01/30 05:10:14;;;;;;;2.70;2.50;;;7.60;99.90;;;;;;5074006;28;20127;-57
2024/01/30 05:12:40;;;;;;;2.60;2.40;;;7.40;99.90;;;;;;5092507;28;20589;-57
2024/01/30 05:15:06;;;;;;;2.67;2.47;;;7.60;99.90;;;;;;5074085;28;20070;-58
2024/01/30 05:17:33;;;;;;;2.75;2.55;;;7.60;99.90;;;;;;5057404;28;20092;-57
2024/01/30 05:19:58;;;;;;;2.78;2.58;;;8.00;99.90;;;;;;5092471;28;20194;-57
2024/01/30 05:22:24;;;;;;;2.88;2.58;;;7.70;99.90;;;;;;5073926;28;20094;-57
2024/01/30 05:24:50;;;;;;;5.80;2.83;;;7.70;99.90;;;;;;5092015;28;20036;-57
2024/01/30 05:27:15;;;;;;;2.95;2.58;;;8.00;99.90;;;;;;5092426;28;20036;-57
2024/01/30 05:29:47;;;;;;;2.50;2.30;;;7.70;99.90;;;;;;5090609;28;20095;-57
2024/01/30 05:32:26;;;;;;;2.30;2.10;;;7.70;99.90;;;;;;5092241;28;20079;-57
2024/01/30 05:34:52;;;;;;;2.72;2.53;;;7.90;99.90;;;;;;5073993;28;20046;-57
2024/01/30 05:37:18;;;;;;;2.42;2.22;;;7.70;99.90;;;;;;5074018;28;20115;-57
2024/01/30 05:39:43;;;;;;;2.35;2.15;;;7.60;99.90;;;;;;5074024;28;20051;-57
2024/01/30 05:42:09;;;;;;;2.78;2.58;;;7.70;99.90;;;;;;5093180;28;20090;-59
2024/01/30 05:44:35;;;;;;;2.95;2.60;;;7.70;99.90;;;;;;5096342;28;20036;-58
2024/01/30 05:47:01;;;;;;;2.58;2.10;;;7.80;99.90;;;;;;5095972;28;20039;-56
2024/01/30 05:49:26;;;;;;;2.72;2.53;;;7.80;99.90;;;;;;5096111;28;20072;-56
2024/01/30 05:51:52;;;;;;;3.40;2.65;;;8.10;99.90;;;;;;5096194;28;20490;-58
2024/01/30 05:54:18;;;;;;;2.60;2.40;;;7.70;99.90;;;;;;5095865;28;20064;-56
2024/01/30 05:56:43;;;;;;;2.53;2.33;;;8.40;99.90;;;;;;5095894;28;20087;-58
2024/01/30 05:59:09;;;;;;;2.90;2.35;;;8.00;99.90;;;;;;5095752;28;20048;-60
2024/01/30 06:01:34;;;;;;;2.70;2.50;;;7.70;99.90;;;;;;5077826;28;20047;-70
2024/01/30 06:04:01;;;;;;;2.70;2.50;;;7.70;99.90;;;;;;5077469;28;20047;-70
2024/01/30 06:06:27;;;;;;;2.90;2.45;;;8.20;99.90;;;;;;5095873;28;20398;-67
2024/01/30 06:08:55;;;;;;;3.42;2.53;;;7.80;99.90;;;;;;5095615;28;20036;-70
2024/01/30 06:11:20;;;;;;;3.10;2.80;;;7.80;99.90;;;;;;5077199;28;20105;-70
2024/01/30 06:13:46;;;;;;;4.03;2.53;;;8.30;99.90;;;;;;5095774;28;20063;-70
2024/01/30 06:16:12;;;;;;;2.53;2.20;;;7.80;99.90;;;;;;5095652;28;20039;-70
2024/01/30 06:18:38;;;;;;;2.50;2.30;;;7.80;99.90;;;;;;5077263;28;20039;-68
2024/01/30 06:21:05;;;;;;;2.50;2.30;;;7.80;99.90;;;;;;5095370;28;20138;-73
2024/01/30 06:23:30;;;;;;;2.67;2.47;;;7.90;99.90;;;;;;5096429;28;20056;-72
2024/01/30 06:25:56;;;;;;;2.83;2.63;;;7.90;99.90;;;;;;5078065;28;20044;-70
2024/01/30 06:28:22;;;;;;;2.67;2.47;;;8.00;99.90;;;;;;5095706;28;20441;-70
2024/01/30 06:30:54;;;;;;;2.88;2.65;;;8.70;99.90;;;;;;5093789;28;20048;-69
2024/01/30 06:33:20;;;;;;;2.35;2.15;;;8.30;99.90;;;;;;5096148;28;20471;-69
2024/01/30 06:35:45;;;;;;;2.72;2.53;;;8.40;99.90;;;;;;5077626;28;20143;-70
2024/01/30 06:38:11;;;;;;;2.65;2.45;;;8.20;99.90;;;;;;5095006;28;20040;-70
2024/01/30 06:40:37;;;;;;;2.63;2.42;;;8.00;99.90;;;;;;5095093;28;20044;-70
2024/01/30 06:43:04;;;;;;;2.33;2.13;;;8.60;99.90;;;;;;5095161;28;20044;-72
2024/01/30 06:45:30;;;;;;;2.50;2.30;;;8.10;99.90;;;;;;5095185;28;20120;-72
2024/01/30 06:47:55;;;;;;;2.75;2.50;;;8.00;99.90;;;;;;5095182;28;20507;-71
2024/01/30 06:50:21;;;;;;;2.80;2.50;;;8.00;99.90;;;;;;5095143;28;20429;-72
2024/01/30 06:52:46;;;;;;;2.47;2.28;;;8.00;99.90;;;;;;5095151;28;20043;-68
2024/01/30 06:55:12;;;;;;;3.13;2.75;;;8.90;99.90;;;;;;5094258;28;20028;-72
2024/01/30 06:57:38;;;;;;;3.17;2.70;;;8.00;99.90;;;;;;5076707;28;20115;-70
2024/01/30 07:00:04;;;;;;;2.50;2.30;;;8.00;99.90;;;;;;5095155;28;20044;-69
2024/01/30 07:02:29;;;;;;;2.45;2.25;;;8.00;99.90;;;;;;5094813;28;20047;-58
2024/01/30 07:04:55;;;;;;;2.92;2.17;;;8.00;99.90;;;;;;5094751;28;20058;-57
2024/01/30 07:07:27;;;;;;;2.92;2.63;;;8.00;99.90;;;;;;5076442;28;20048;-60
2024/01/30 07:10:05;;;;;;;2.78;2.58;;;8.10;99.90;;;;;;5094339;28;20044;-61
2024/01/30 07:12:33;;;;;;;2.45;2.22;;;8.10;99.90;;;;;;5094355;28;20032;-72
2024/01/30 07:14:59;;;;;;;2.80;2.60;;;8.10;99.90;;;;;;5094621;28;20513;-71
2024/01/30 07:17:25;;;;;;;2.90;2.58;;;8.10;99.90;;;;;;5094515;28;20433;-72
2024/01/30 07:19:50;;;;;;;2.72;2.53;;;8.00;99.90;;;;;;5094454;28;20047;-63
2024/01/30 07:22:16;;;;;;;2.97;2.63;;;8.60;99.90;;;;;;5094121;28;20040;-63
2024/01/30 07:24:47;;;;;;;2.85;2.63;;;7.90;99.90;;;;;;5075923;28;20036;-63
2024/01/30 07:27:13;;;;;;;2.90;2.42;;;8.00;99.90;;;;;;5094406;28;20120;-64
2024/01/30 07:29:38;;;;;;;2.60;2.28;;;8.10;99.90;;;;;;5092756;28;20043;-63
2024/01/30 07:32:18;;;;;;;3.20;2.83;;;8.10;99.90;;;;;;5094201;28;20055;-63
2024/01/30 07:34:44;;;;;;;2.83;2.58;;;8.10;99.90;;;;;;5093921;28;20056;-64
2024/01/30 07:37:10;;;;;;;2.65;2.45;;;8.10;99.90;;;;;;5094085;28;20487;-62
2024/01/30 07:39:36;;;;;;;2.75;2.35;;;8.00;99.90;;;;;;5094061;28;20445;-64
2024/01/30 07:42:02;;;;;;;2.47;2.22;;;8.00;99.90;;;;;;5094033;28;20040;-61
2024/01/30 07:44:28;;;;;;;2.88;2.40;;;8.00;99.90;;;;;;5093944;28;20050;-61
2024/01/30 07:46:54;;;;;;;3.13;2.83;;;8.30;99.90;;;;;;5075554;28;20430;-62
2024/01/30 07:49:20;;;;;;;2.58;2.38;;;8.40;99.90;;;;;;5093810;28;20487;-64
2024/01/30 07:51:46;;;;;;;3.15;2.70;;;8.00;99.90;;;;;;5093844;28;20036;-64
2024/01/30 07:54:14;;;;;;;2.80;2.60;;;8.00;99.90;;;;;;5093454;28;20040;-63
2024/01/30 07:56:40;;;;;;;2.78;2.58;;;8.00;99.90;;;;;;5075503;28;20039;-64
2024/01/30 07:59:10;;;;;;;2.45;2.25;;;8.00;99.90;;;;;;5075547;28;20483;-64
2024/01/30 08:01:35;;;;;;;2.50;2.30;;;8.00;99.90;;;;;;5093645;28;20040;-64
2024/01/30 08:04:01;;;;;;;2.70;2.50;;;8.00;99.90;;;;;;5093560;28;20044;-64
2024/01/30 08:06:26;;;;;;;2.47;2.28;;;8.00;99.90;;;;;;5093483;28;20390;-64
2024/01/30 08:08:53;;;;;;;2.65;2.45;;;8.00;99.90;;;;;;5093612;28;20068;-64
2024/01/30 08:11:25;;;;;;;2.60;2.40;;;8.20;99.90;;;;;;5075605;28;20643;-59
2024/01/30 08:13:52;;;;;;;2.90;2.60;;;8.00;99.90;;;;;;5093144;28;20044;-57
2024/01/30 08:16:17;;;;;;;2.85;2.65;;;8.10;99.90;;;;;;5075322;28;20035;-60
2024/01/30 08:18:43;;;;;;;2.58;2.38;;;8.00;99.90;;;;;;5093399;28;20036;-59
2024/01/30 08:21:09;;;;;;;2.72;2.42;;;8.20;99.90;;;;;;5093143;28;20083;-72
2024/01/30 08:23:35;;;;;;;2.63;2.42;;;8.40;99.90;;;;;;5075316;28;20046;-75
2024/01/30 08:26:00;;;;;;;3.55;2.80;;;8.10;99.90;;;;;;5093374;28;20085;-74
2024/01/30 08:28:26;;;;;;;2.78;2.58;;;8.20;99.90;;;;;;5093131;28;20036;-75
2024/01/30 08:30:59;;;;;;;2.58;2.38;;;8.20;99.90;;;;;;5070902;28;20131;-72
2024/01/30 08:33:31;;;;;;;2.67;2.47;;;8.20;99.90;;;;;;5072741;28;20373;-71
2024/01/30 08:35:57;;;;;;;2.75;2.33;;;8.20;99.90;;;;;;5071268;28;20046;-71
2024/01/30 08:38:23;;;;;;;2.90;2.60;;;8.30;99.90;;;;;;5072752;28;20041;-73
2024/01/30 08:40:49;;;;;;;2.53;2.33;;;8.50;99.90;;;;;;5072704;28;20036;-72
2024/01/30 08:43:15;;;;;;;2.47;2.28;;;8.30;99.90;;;;;;5072670;28;20542;-72
2024/01/30 08:45:41;;;;;;;2.58;2.38;;;8.40;99.90;;;;;;5072268;28;20041;-71
2024/01/30 08:48:07;;;;;;;2.28;2.08;;;8.50;99.90;;;;;;5071047;28;20047;-73
2024/01/30 08:50:33;;;;;;;2.63;2.35;;;8.50;99.90;;;;;;5072464;28;20071;-72
2024/01/30 08:52:59;;;;;;;2.47;2.28;;;8.60;99.90;;;;;;5071174;28;20040;-71
2024/01/30 08:55:24;;;;;;;2.22;2.03;;;8.60;99.90;;;;;;5072493;28;20172;-70
2024/01/30 08:57:51;;;;;;;2.55;2.35;;;8.60;99.90;;;;;;5073483;28;20030;-74
2024/01/30 09:00:17;;;;;;;2.75;2.50;;;8.70;99.90;;;;;;5073075;28;20166;-73
2024/01/30 09:02:43;;;;;;;2.13;1.92;;;8.70;99.90;;;;;;5070968;28;20048;-74
2024/01/30 09:05:09;;;;;;;2.35;2.00;;;8.80;99.90;;;;;;5072491;28;20380;-72
2024/01/30 09:07:35;;;;;;;2.20;2.00;;;8.80;99.90;;;;;;5072528;28;20040;-73
2024/01/30 09:10:01;;;;;;;2.50;2.30;;;8.80;99.90;;;;;;5072600;28;20044;-73
2024/01/30 09:12:26;;;;;;;2.35;2.15;;;9.20;99.90;;;;;;5070989;28;20075;-72
2024/01/30 09:14:52;;;;;;;2.47;2.28;;;9.00;99.90;;;;;;5072701;28;20391;-71
2024/01/30 09:17:18;;;;;;;2.15;1.95;;;8.90;99.90;;;;;;5071729;28;20060;-73
2024/01/30 09:19:43;;;;;;;2.70;2.35;;;9.30;99.90;;;;;;5072388;28;20055;-74
2024/01/30 09:22:09;;;;;;;2.08;1.98;;;8.90;99.90;;;;;;5072217;28;20156;-60
2024/01/30 09:24:35;;;;;;;3.15;2.40;;;8.90;99.90;;;;;;5070635;28;20048;-58
2024/01/30 09:27:00;;;;;;;2.35;2.15;;;9.40;99.90;;;;;;5071869;28;20063;-58
2024/01/30 09:29:26;;;;;;;2.40;2.20;;;9.00;99.90;;;;;;5070791;28;20051;-58
2024/01/30 09:31:58;;;;;;;2.88;2.55;;;9.10;99.90;;;;;;5089152;28;20139;-61
2024/01/30 09:34:24;;;;;;;2.40;2.20;;;9.20;99.90;;;;;;5092018;28;20040;-61
2024/01/30 09:36:50;;;;;;;3.15;2.30;;;9.20;99.90;;;;;;5091919;28;20047;-61
2024/01/30 09:39:16;;;;;;;3.53;2.35;;;9.20;99.90;;;;;;5092235;28;20033;-61
2024/01/30 09:42:10;;;;;;;2.47;2.28;;;9.30;99.90;;;;;;5092345;28;20059;-61
2024/01/30 09:44:38;;;;;;;2.75;2.47;;;9.30;99.90;;;;;;5055052;28;20407;-61
2024/01/30 09:47:05;;;;;;;2.42;2.15;;;9.30;99.90;;;;;;5092120;28;20131;-61
2024/01/30 09:49:35;;;;;;;2.70;2.25;;;9.40;99.90;;;;;;5092018;28;20384;-61
2024/01/30 09:52:05;;;;;;;2.22;2.03;;;9.40;99.90;;;;;;5092040;28;20532;-61
2024/01/30 09:54:34;;;;;;;2.20;2.00;;;9.40;99.90;;;;;;5091833;28;20039;-61
2024/01/30 09:56:59;;;;;;;2.40;2.20;;;9.40;99.90;;;;;;5092015;28;20059;-61
2024/01/30 09:59:25;;;;;;;2.47;2.05;;;9.50;99.90;;;;;;5092024;28;20028;-61
2024/01/30 10:01:51;;;;;;;2.85;2.00;;;9.60;99.90;;;;;;5091919;28;20036;-61
2024/01/30 10:04:17;;;;;;;2.33;2.13;;;9.70;99.90;;;;;;5091980;28;20032;-61
2024/01/30 10:06:43;;;;;;;2.58;1.95;;;9.80;99.90;;;;;;5091926;28;20493;-61
2024/01/30 10:09:09;;;;;;;2.20;2.00;;;9.90;99.90;;;;;;5091546;28;20051;-62
2024/01/30 10:11:36;;;;;;;2.17;1.98;;;10.00;99.90;;;;;;5091543;28;20050;-61
2024/01/30 10:14:02;;;;;;;2.92;1.92;;;10.00;99.90;;;;;;5091947;28;20082;-61
2024/01/30 10:16:28;;;;;;;2.40;2.20;;;10.10;99.90;;;;;;5091903;28;20048;-61
2024/01/30 10:18:53;;;;;;;2.92;1.80;;;10.20;99.90;;;;;;5091555;28;20043;-61
2024/01/30 10:21:19;;;;;;;2.08;1.98;;;10.10;99.90;;;;;;5091847;28;20083;-61
2024/01/30 10:23:45;;;;;;;2.38;2.17;;;10.10;99.90;;;;;;5091446;28;20558;-62
2024/01/30 10:26:10;;;;;;;2.10;1.92;;;10.10;99.90;;;;;;5073640;28;20044;-61
2024/01/30 10:28:36;;;;;;;1.90;1.70;;;10.20;99.90;;;;;;5091794;28;20040;-61
2024/01/30 10:31:09;;;;;;;2.70;2.13;;;10.30;99.90;;;;;;5093974;28;20048;-59
2024/01/30 10:33:34;;;;;;;2.33;2.13;;;10.30;99.90;;;;;;5095386;28;20441;-59
2024/01/30 10:36:02;;;;;;;2.50;2.05;;;10.60;99.90;;;;;;5095208;28;20119;-58
2024/01/30 10:38:32;;;;;;;3.17;2.38;;;10.20;99.90;;;;;;5094952;28;20040;-59
2024/01/30 10:40:59;;;;;;;2.40;2.20;;;10.60;99.90;;;;;;5076921;28;20044;-63
2024/01/30 10:43:35;;;;;;;1.85;1.75;;;10.40;99.90;;;;;;5095207;28;20039;-63
2024/01/30 10:46:19;;;;;;;2.50;2.25;;;10.40;99.90;;;;;;5095105;28;20063;-63
2024/01/30 10:48:50;;;;;;;2.30;2.10;;;10.50;99.90;;;;;;5095124;28;20040;-63
2024/01/30 10:51:18;;;;;;;2.17;1.98;;;10.50;99.90;;;;;;5094824;28;20079;-63
2024/01/30 10:53:46;;;;;;;2.65;2.25;;;10.60;99.90;;;;;;5094954;28;20036;-63
2024/01/30 10:56:13;;;;;;;3.78;2.70;;;10.60;99.90;;;;;;5094946;28;20120;-63
2024/01/30 10:58:38;;;;;;;2.47;2.28;;;10.60;99.90;;;;;;5094880;28;20407;-63
2024/01/30 11:01:05;;;;;;;1.90;1.80;;;10.60;99.90;;;;;;5094879;28;20044;-63
2024/01/30 11:03:34;;;;;;;2.40;2.20;;;10.50;99.90;;;;;;5094756;28;20438;-63
2024/01/30 11:06:00;;;;;;;2.40;2.15;;;10.50;99.90;;;;;;5094721;28;20052;-62
2024/01/30 11:08:28;;;;;;;2.58;2.22;;;10.60;99.90;;;;;;5094680;28;20081;-63
2024/01/30 11:10:58;;;;;;;2.42;2.22;;;10.60;99.90;;;;;;5094370;28;20044;-63
2024/01/30 11:13:31;;;;;;;2.13;1.88;;;10.50;99.90;;;;;;5094340;28;20044;-63
2024/01/30 11:16:06;;;;;;;2.38;2.08;;;10.60;99.90;;;;;;5094222;28;20081;-63
2024/01/30 11:18:35;;;;;;;2.30;2.05;;;10.50;99.90;;;;;;5094522;28;20040;-63
2024/01/30 11:21:01;;;;;;;2.30;2.10;;;10.50;99.90;;;;;;5094399;28;20062;-63
2024/01/30 11:23:32;;;;;;;2.45;1.90;;;10.50;99.90;;;;;;5094408;28;20046;-63
2024/01/30 11:25:58;;;;;;;;;;;10.50;99.90;;;;;;5094793;28;20490;-63
2024/01/30 11:28:24;;;;;;;2.33;2.13;;;10.50;99.90;;;;;;5094447;28;19967;-62
2024/01/30 11:30:52;;;;;;;2.47;2.25;;;10.50;99.90;;;;;;5092603;28;20056;-63
2024/01/30 11:33:31;;;;;;;2.28;2.08;;;10.80;99.90;;;;;;5094197;28;20135;-63
2024/01/30 11:36:01;;;;;;;2.83;2.42;;;10.50;99.90;;;;;;5094170;28;20118;-63
2024/01/30 11:38:28;;;;;;;2.20;2.00;;;10.50;99.90;;;;;;5076056;28;20094;-63
2024/01/30 11:40:57;;;;;;;2.72;2.42;;;10.50;99.90;;;;;;5075976;28;20043;-70
2024/01/30 11:43:23;;;;;;;3.17;2.42;;;10.60;99.90;;;;;;5094154;28;20043;-71
2024/01/30 11:45:49;;;;;;;2.42;2.22;;;10.60;99.90;;;;;;5093602;28;20048;-70
2024/01/30 11:48:15;;;;;;;2.45;2.25;;;10.60;99.90;;;;;;5093522;28;20039;-72
2024/01/30 11:50:41;;;;;;;3.80;2.50;;;10.60;99.90;;;;;;5093679;28;20036;-58
2024/01/30 11:53:06;;;;;;;2.88;2.47;;;10.60;99.90;;;;;;5093395;28;20038;-60
2024/01/30 11:55:34;;;;;;;2.88;2.50;;;10.60;99.90;;;;;;5075553;28;20084;-60
2024/01/30 11:58:00;;;;;;;2.55;2.35;;;10.60;99.90;;;;;;5093616;28;20048;-60
2024/01/30 12:00:25;;;;;;;3.70;2.47;;;10.60;99.90;;;;;;5093565;28;20067;-60
2024/01/30 12:02:55;;;;;;;2.90;2.55;;;10.60;99.90;;;;;;5093467;28;20395;-59
2024/01/30 12:05:25;;;;;;;2.17;1.98;;;10.60;99.90;;;;;;5074904;28;20044;-59
2024/01/30 12:07:50;;;;;;;2.45;2.25;;;10.70;99.90;;;;;;5093366;28;20043;-59
2024/01/30 12:10:17;;;;;;;2.58;2.28;;;10.70;99.90;;;;;;5092970;28;20426;-59
2024/01/30 12:12:48;;;;;;;2.83;2.63;;;10.80;99.90;;;;;;5058129;28;20043;-59
2024/01/30 12:15:15;;;;;;;3.08;2.78;;;10.90;99.90;;;;;;5058465;28;20487;-60
2024/01/30 12:17:41;;;;;;;3.10;2.65;;;10.90;99.90;;;;;;5074636;28;20036;-59
2024/01/30 12:20:11;;;;;;;2.83;2.60;;;11.00;99.90;;;;;;5093140;28;20540;-59
2024/01/30 12:22:39;;;;;;;3.20;2.65;;;11.00;99.90;;;;;;5093086;28;20036;-59
2024/01/30 12:25:09;;;;;;;3.30;2.72;;;11.00;99.90;;;;;;5093132;28;20047;-59
2024/01/30 12:27:35;;;;;;;3.13;2.63;;;11.00;99.90;;;;;;5092977;28;20058;-58
2024/01/30 12:30:08;;;;;;;3.03;2.35;;;10.90;99.90;;;;;;5092634;28;20048;-61
2024/01/30 12:32:49;;;;;;;3.85;2.60;;;10.90;99.90;;;;;;5092721;28;20131;-60
2024/01/30 12:35:17;;;;;;;3.03;2.33;;;10.80;99.90;;;;;;5092853;28;20479;-58
2024/01/30 12:37:44;;;;;;;3.70;3.17;;;10.70;99.90;;;;;;5074587;28;20046;-58
2024/01/30 12:40:11;;;;;;;3.10;2.58;;;10.60;99.90;;;;;;5092687;28;20052;-59
2024/01/30 12:42:37;;;;;;;2.90;1.95;;;10.60;99.90;;;;;;5092711;28;20035;-60
2024/01/30 12:45:06;;;;;;;1.85;1.60;;;10.60;99.90;;;;;;5092904;28;20111;-59
2024/01/30 12:47:32;;;;;;;2.17;1.70;;;10.60;99.90;;;;;;5074381;28;20036;-59
2024/01/30 12:49:58;;;;;;;1.70;1.50;;;10.60;99.90;;;;;;5092701;28;20475;-61
2024/01/30 12:52:24;;;;;;;1.90;1.25;;;10.50;99.90;;;;;;5092146;28;20472;-63
2024/01/30 12:54:50;;;;;;;1.67;1.30;;;10.50;99.90;;;;;;5092693;28;20121;-64